Time;durP1;ratioP1;P1;durP2;ratioP2;P2;SDS_P1;SDS_P2;PMS_P1;PMS_P2;Temp;Humidity;BMP_temperature;BMP_pressure;BME280_temperature;BME280_humidity;BME280_pressure;Samples;Min_cycle;Max_cycle;Signal;HPM_P1;HPM_P2
2021/12/03 00:00:50;;;;;;;12.80;8.38;;;;;;;;;;5054954;28;20036;-71
2021/12/03 00:03:15;;;;;;;11.57;6.88;;;;;;;;;;5054921;28;20104;-72
2021/12/03 00:05:41;;;;;;;23.83;14.20;;;;;;;;;;5055526;28;20123;-71
2021/12/03 00:08:07;;;;;;;6.53;3.75;;;;;;;;;;5055154;28;20451;-72
2021/12/03 00:10:34;;;;;;;34.42;18.63;;;;;;;;;;5055693;28;20024;-73
2021/12/03 00:13:00;;;;;;;26.15;12.55;;;;;;;;;;5055391;28;20096;-73
2021/12/03 00:15:26;;;;;;;18.35;10.35;;;;;;;;;;5054830;28;20112;-74
2021/12/03 00:17:53;;;;;;;10.95;5.78;;;;;;;;;;5055833;28;20051;-73
2021/12/03 00:20:20;;;;;;;11.98;5.43;;;;;;;;;;5055337;28;20073;-72
2021/12/03 00:22:46;;;;;;;13.25;8.77;;;;;;;;;;5054555;28;20034;-72
2021/12/03 00:25:12;;;;;;;9.30;5.75;;;;;;;;;;5055261;28;20024;-72
2021/12/03 00:27:37;;;;;;;10.77;6.63;;;;;;;;;;5055732;28;20081;-71
2021/12/03 00:30:04;;;;;;;12.32;7.63;;;;;;;;;;5059021;28;20138;-73
2021/12/03 00:32:30;;;;;;;13.75;8.02;;;;;;;;;;5059543;28;20017;-72
2021/12/03 00:34:55;;;;;;;28.27;16.15;;;;;;;;;;5058956;28;20024;-73
2021/12/03 00:37:21;;;;;;;21.98;10.90;;;;;;;;;;5058957;28;20029;-72
2021/12/03 00:39:46;;;;;;;17.92;9.52;;;;;;;;;;5058560;28;20024;-73
2021/12/03 00:42:15;;;;;;;20.77;10.55;;;;;;;;;;5059736;28;20036;-71
2021/12/03 00:44:41;;;;;;;17.70;8.80;;;;;;;;;;5058933;28;20029;-72
2021/12/03 00:47:06;;;;;;;13.90;7.85;;;;;;;;;;5059462;28;20069;-71
2021/12/03 00:49:32;;;;;;;14.63;8.32;;;;;;;;;;5060111;28;20111;-72
2021/12/03 00:51:57;;;;;;;12.32;8.07;;;;;;;;;;5058170;28;20081;-73
2021/12/03 00:54:23;;;;;;;10.70;6.82;;;;;;;;;;5058544;28;20464;-72
2021/12/03 00:56:48;;;;;;;10.30;5.97;;;;;;;;;;5059402;28;20101;-72
2021/12/03 00:59:14;;;;;;;15.07;8.27;;;;;;;;;;5058002;28;20028;-72
2021/12/03 01:01:39;;;;;;;23.38;12.05;;;;;;;;;;5058509;28;20044;-72
2021/12/03 01:04:05;;;;;;;16.50;8.90;;;;;;;;;;5058329;28;20021;-73
2021/12/03 01:06:31;;;;;;;13.05;6.72;;;;;;;;;;5058172;28;20693;-72
2021/12/03 01:08:56;;;;;;;22.15;11.25;;;;;;;;;;5058031;28;20107;-72
2021/12/03 01:11:21;;;;;;;26.58;15.40;;;;;;;;;;5058528;28;20036;-73
2021/12/03 01:13:47;;;;;;;22.77;12.55;;;;;;;;;;5058573;28;20965;-71
2021/12/03 01:16:13;;;;;;;16.90;10.32;;;;;;;;;;5058602;28;20127;-73
2021/12/03 01:18:39;;;;;;;13.02;7.38;;;;;;;;;;5056488;28;20024;-72
2021/12/03 01:21:05;;;;;;;10.85;5.47;;;;;;;;;;5058540;28;20024;-72
2021/12/03 01:23:30;;;;;;;9.50;6.13;;;;;;;;;;5058686;28;20044;-72
2021/12/03 01:25:56;;;;;;;16.63;9.07;;;;;;;;;;5058803;28;20031;-72
2021/12/03 01:28:22;;;;;;;17.23;10.52;;;;;;;;;;5058247;28;20043;-72
2021/12/03 01:30:47;;;;;;;21.95;12.73;;;;;;;;;;5058499;28;20052;-71
2021/12/03 01:33:13;;;;;;;12.18;7.68;;;;;;;;;;5058344;28;20099;-72
2021/12/03 01:35:38;;;;;;;11.98;6.43;;;;;;;;;;5058760;28;20020;-73
2021/12/03 01:38:05;;;;;;;10.05;6.95;;;;;;;;;;5057826;28;20028;-72
2021/12/03 01:40:34;;;;;;;18.40;9.88;;;;;;;;;;5058340;28;20020;-74
2021/12/03 01:43:00;;;;;;;29.02;12.13;;;;;;;;;;5057536;28;20017;-73
2021/12/03 01:45:28;;;;;;;13.32;5.95;;;;;;;;;;5057736;28;20040;-72
2021/12/03 01:47:54;;;;;;;7.20;4.18;;;;;;;;;;5057567;28;20379;-71
2021/12/03 01:50:40;;;;;;;5.95;3.72;;;;;;;;;;5058051;28;20031;-73
2021/12/03 01:53:06;;;;;;;8.50;5.57;;;;;;;;;;5058657;28;20062;-72
2021/12/03 01:55:31;;;;;;;21.15;11.98;;;;;;;;;;5057201;28;20029;-74
2021/12/03 01:57:56;;;;;;;9.10;6.60;;;;;;;;;;5057215;28;20028;-72
2021/12/03 02:00:54;;;;;;;5.63;4.18;;;;;;;;;;5057312;28;20032;-73
2021/12/03 02:03:24;;;;;;;26.83;15.98;;;;;;;;;;5052782;28;20040;-71
2021/12/03 02:05:49;;;;;;;;;;;;;;;;;;5055994;28;20711;-72
2021/12/03 02:08:14;;;;;;;14.97;7.97;;;;;;;;;;5058674;28;20465;-71
2021/12/03 02:10:40;;;;;;;16.30;8.57;;;;;;;;;;5056370;28;20024;-72
2021/12/03 02:13:06;;;;;;;15.00;6.53;;;;;;;;;;5057487;28;20548;-72
2021/12/03 02:15:31;;;;;;;5.38;3.20;;;;;;;;;;5057677;28;20063;-72
2021/12/03 02:17:57;;;;;;;4.30;2.30;;;;;;;;;;5057159;28;20415;-72
2021/12/03 02:20:22;;;;;;;5.68;2.03;;;;;;;;;;5057343;28;20025;-72
2021/12/03 02:22:48;;;;;;;2.33;1.70;;;;;;;;;;5056684;28;20364;-73
2021/12/03 02:25:15;;;;;;;4.03;2.10;;;;;;;;;;5057704;28;20471;-73
2021/12/03 02:27:41;;;;;;;6.05;3.22;;;;;;;;;;5056549;28;20039;-71
2021/12/03 02:30:07;;;;;;;12.40;6.65;;;;;;;;;;5056649;28;20025;-75
2021/12/03 02:32:32;;;;;;;31.33;17.73;;;;;;;;;;5057448;28;20036;-72
2021/12/03 02:34:58;;;;;;;37.28;19.88;;;;;;;;;;5056226;28;20017;-73
2021/12/03 02:37:23;;;;;;;26.15;14.35;;;;;;;;;;5057050;28;20024;-73
2021/12/03 02:39:49;;;;;;;19.00;10.80;;;;;;;;;;5056015;28;20448;-73
2021/12/03 02:42:14;;;;;;;23.55;12.25;;;;;;;;;;5056195;28;20047;-72
2021/12/03 02:44:39;;;;;;;29.38;11.73;;;;;;;;;;5057473;28;20103;-74
2021/12/03 02:47:05;;;;;;;23.65;9.77;;;;;;;;;;5057062;28;20104;-70
2021/12/03 02:49:35;;;;;;;66.18;28.92;;;;;;;;;;5056348;28;20021;-72
2021/12/03 02:52:00;;;;;;;43.00;21.20;;;;;;;;;;5055511;28;20024;-72
2021/12/03 02:54:26;;;;;;;15.88;9.88;;;;;;;;;;5056463;28;20058;-72
2021/12/03 02:56:51;;;;;;;10.10;5.97;;;;;;;;;;5055185;28;20367;-74
2021/12/03 02:59:16;;;;;;;12.85;7.90;;;;;;;;;;5056359;28;20126;-72
2021/12/03 03:01:42;;;;;;;5.60;3.03;;;;;;;;;;5055893;28;20063;-71
2021/12/03 03:04:07;;;;;;;16.63;10.57;;;;;;;;;;5056212;28;20032;-72
2021/12/03 03:06:34;;;;;;;14.20;9.43;;;;;;;;;;5056233;28;20426;-72
2021/12/03 03:09:01;;;;;;;29.88;14.30;;;;;;;;;;5056279;28;20020;-73
2021/12/03 03:11:29;;;;;;;22.55;11.25;;;;;;;;;;5056016;28;20074;-73
2021/12/03 03:13:54;;;;;;;20.90;9.82;;;;;;;;;;5055597;28;20052;-73
2021/12/03 03:16:20;;;;;;;14.18;8.32;;;;;;;;;;5055254;28;20112;-75
2021/12/03 03:18:45;;;;;;;56.92;26.05;;;;;;;;;;5056287;28;20021;-73
2021/12/03 03:21:11;;;;;;;41.75;20.92;;;;;;;;;;5055381;28;20131;-72
2021/12/03 03:23:36;;;;;;;46.78;21.80;;;;;;;;;;5056292;28;20029;-72
2021/12/03 03:26:02;;;;;;;99.20;47.35;;;;;;;;;;5056767;28;20024;-71
2021/12/03 03:28:28;;;;;;;53.70;26.10;;;;;;;;;;5055573;28;20028;-72
2021/12/03 03:30:55;;;;;;;41.65;22.27;;;;;;;;;;5055699;28;20032;-73
2021/12/03 03:33:20;;;;;;;22.73;12.73;;;;;;;;;;5055662;28;20526;-72
2021/12/03 03:35:46;;;;;;;17.15;9.48;;;;;;;;;;5055910;28;20020;-72
2021/12/03 03:38:13;;;;;;;8.85;6.30;;;;;;;;;;5055767;28;20024;-71
2021/12/03 03:40:39;;;;;;;14.50;9.75;;;;;;;;;;5056245;28;20051;-73
2021/12/03 03:43:06;;;;;;;9.07;5.22;;;;;;;;;;5053726;28;20368;-72
2021/12/03 03:45:32;;;;;;;6.53;4.30;;;;;;;;;;5055443;28;20815;-73
2021/12/03 03:47:57;;;;;;;6.15;4.65;;;;;;;;;;5055803;28;20083;-73
2021/12/03 03:50:24;;;;;;;7.53;5.47;;;;;;;;;;5055020;28;20081;-72
2021/12/03 03:52:51;;;;;;;8.45;4.47;;;;;;;;;;5055325;28;20480;-72
2021/12/03 03:55:17;;;;;;;7.97;4.03;;;;;;;;;;5055666;28;20021;-72
2021/12/03 03:57:42;;;;;;;3.72;3.28;;;;;;;;;;5054917;28;20349;-72
2021/12/03 04:00:10;;;;;;;7.00;4.95;;;;;;;;;;5055190;28;20457;-72
2021/12/03 04:02:36;;;;;;;11.10;5.30;;;;;;;;;;5054570;28;20017;-73
2021/12/03 04:05:01;;;;;;;11.75;5.82;;;;;;;;;;5055574;28;20499;-74
2021/12/03 04:07:27;;;;;;;7.93;5.30;;;;;;;;;;5053576;28;20060;-72
2021/12/03 04:09:52;;;;;;;8.57;5.72;;;;;;;;;;5055885;28;20032;-71
2021/12/03 04:12:17;;;;;;;9.80;5.68;;;;;;;;;;5055616;28;20375;-71
2021/12/03 04:14:43;;;;;;;9.55;6.22;;;;;;;;;;5055147;28;20077;-74
2021/12/03 04:17:08;;;;;;;9.98;5.65;;;;;;;;;;5054478;28;20048;-74
2021/12/03 04:19:35;;;;;;;19.13;11.57;;;;;;;;;;5054673;28;20024;-73
2021/12/03 04:22:01;;;;;;;14.52;8.65;;;;;;;;;;5055503;28;20135;-72
2021/12/03 04:24:26;;;;;;;15.40;8.48;;;;;;;;;;5055434;28;20116;-73
2021/12/03 04:26:52;;;;;;;11.82;7.32;;;;;;;;;;5055462;28;20024;-73
2021/12/03 04:29:17;;;;;;;20.10;10.90;;;;;;;;;;5055079;28;20100;-73
2021/12/03 04:31:42;;;;;;;18.65;10.10;;;;;;;;;;5054998;28;20494;-73
2021/12/03 04:34:08;;;;;;;35.28;19.50;;;;;;;;;;5056047;28;20024;-73
2021/12/03 04:36:33;;;;;;;34.45;17.60;;;;;;;;;;5055058;28;20025;-72
2021/12/03 04:38:59;;;;;;;23.42;13.30;;;;;;;;;;5055241;28;20036;-73
2021/12/03 04:41:24;;;;;;;37.40;18.77;;;;;;;;;;5054690;28;20035;-71
2021/12/03 04:43:50;;;;;;;52.95;26.95;;;;;;;;;;5055978;28;20033;-73
2021/12/03 04:46:15;;;;;;;21.50;12.77;;;;;;;;;;5053168;28;20086;-73
2021/12/03 04:48:41;;;;;;;41.67;24.52;;;;;;;;;;5055287;28;20379;-71
2021/12/03 04:51:06;;;;;;;33.67;20.38;;;;;;;;;;5055224;28;20032;-72
2021/12/03 04:53:31;;;;;;;38.60;22.35;;;;;;;;;;5054139;28;20016;-73
2021/12/03 04:55:57;;;;;;;43.63;25.65;;;;;;;;;;5061096;28;20073;-72
2021/12/03 04:58:22;;;;;;;28.42;17.38;;;;;;;;;;5057017;28;20036;-72
2021/12/03 05:00:50;;;;;;;15.63;9.55;;;;;;;;;;5054279;28;20024;-71
2021/12/03 05:03:15;;;;;;;25.27;14.32;;;;;;;;;;5054472;28;20035;-73
2021/12/03 05:05:50;;;;;;;27.25;15.63;;;;;;;;;;5055031;28;20493;-74
2021/12/03 05:08:16;;;;;;;32.55;21.08;;;;;;;;;;5057266;28;20031;-73
2021/12/03 05:10:42;;;;;;;27.17;17.25;;;;;;;;;;5062575;28;20028;-72
2021/12/03 05:13:09;;;;;;;37.50;24.42;;;;;;;;;;5054106;28;20631;-73
2021/12/03 05:15:35;;;;;;;52.80;31.48;;;;;;;;;;5058799;28;20024;-72
2021/12/03 05:18:01;;;;;;;52.88;32.28;;;;;;;;;;5058887;28;20073;-71
2021/12/03 05:20:26;;;;;;;29.77;18.85;;;;;;;;;;5071678;28;20102;-71
2021/12/03 05:22:53;;;;;;;47.63;26.30;;;;;;;;;;5078347;28;20027;-71
2021/12/03 05:25:19;;;;;;;43.17;25.77;;;;;;;;;;5068935;28;20108;-71
2021/12/03 05:27:44;;;;;;;17.17;11.00;;;;;;;;;;5077125;28;20111;-72
2021/12/03 05:30:10;;;;;;;17.77;9.80;;;;;;;;;;5078081;28;20016;-72
2021/12/03 05:32:35;;;;;;;113.22;70.95;;;;;;;;;;5077634;28;20027;-72
2021/12/03 05:35:01;;;;;;;330.60;191.77;;;;;;;;;;5077912;28;20031;-72
2021/12/03 05:37:26;;;;;;;60.00;27.92;;;;;;;;;;5078893;28;20097;-72
2021/12/03 05:39:52;;;;;;;60.70;31.13;;;;;;;;;;5071873;28;20016;-71
2021/12/03 05:42:17;;;;;;;23.88;13.07;;;;;;;;;;5076296;28;20032;-72
2021/12/03 05:44:42;;;;;;;77.40;42.13;;;;;;;;;;5072181;28;20036;-72
2021/12/03 05:47:08;;;;;;;51.42;29.98;;;;;;;;;;5074560;28;20036;-74
2021/12/03 05:49:33;;;;;;;50.55;30.52;;;;;;;;;;5077583;28;20063;-73
2021/12/03 05:51:59;;;;;;;25.80;16.20;;;;;;;;;;5078446;28;20747;-72
2021/12/03 05:54:25;;;;;;;18.75;10.70;;;;;;;;;;5077122;28;20429;-72
2021/12/03 05:56:51;;;;;;;19.90;11.60;;;;;;;;;;5076812;28;20546;-73
2021/12/03 05:59:17;;;;;;;14.00;7.70;;;;;;;;;;5077072;28;20074;-75
2021/12/03 06:01:43;;;;;;;10.60;5.32;;;;;;;;;;5076945;28;20020;-71
2021/12/03 06:04:08;;;;;;;54.85;27.80;;;;;;;;;;5076334;28;20034;-71
2021/12/03 06:06:33;;;;;;;76.43;34.50;;;;;;;;;;5077561;28;20012;-72
2021/12/03 06:08:59;;;;;;;84.10;37.97;;;;;;;;;;5077240;28;20024;-75
2021/12/03 06:11:25;;;;;;;90.55;37.55;;;;;;;;;;5077684;28;20031;-72
2021/12/03 06:13:51;;;;;;;48.38;23.15;;;;;;;;;;5078178;28;20451;-74
2021/12/03 06:16:20;;;;;;;40.78;24.33;;;;;;;;;;5075665;28;20667;-73
2021/12/03 06:18:45;;;;;;;40.97;25.27;;;;;;;;;;5075484;28;20016;-72
2021/12/03 06:21:11;;;;;;;42.58;27.45;;;;;;;;;;5077062;28;20039;-71
2021/12/03 06:23:37;;;;;;;26.98;17.40;;;;;;;;;;5078029;28;20095;-72
2021/12/03 06:26:03;;;;;;;28.88;18.90;;;;;;;;;;5077025;28;20107;-75
2021/12/03 06:28:29;;;;;;;30.27;20.13;;;;;;;;;;5076305;28;20058;-71
2021/12/03 06:30:55;;;;;;;61.22;40.60;;;;;;;;;;5075348;28;20454;-72
2021/12/03 06:33:20;;;;;;;58.25;34.95;;;;;;;;;;5075747;28;20076;-72
2021/12/03 06:35:46;;;;;;;62.30;39.00;;;;;;;;;;5075834;28;20024;-72
2021/12/03 06:38:12;;;;;;;38.38;22.42;;;;;;;;;;5076087;28;20020;-72
2021/12/03 06:40:37;;;;;;;31.63;18.20;;;;;;;;;;5071213;28;20081;-71
2021/12/03 06:43:03;;;;;;;27.45;16.70;;;;;;;;;;5067517;28;20051;-70
2021/12/03 06:45:28;;;;;;;35.85;22.23;;;;;;;;;;5064224;28;20020;-71
2021/12/03 06:47:54;;;;;;;38.80;24.85;;;;;;;;;;5065393;28;20031;-70
2021/12/03 06:50:19;;;;;;;42.20;24.65;;;;;;;;;;5056475;28;20047;-73
2021/12/03 06:52:48;;;;;;;35.78;20.15;;;;;;;;;;5063525;28;20027;-72
2021/12/03 06:55:15;;;;;;;59.17;35.03;;;;;;;;;;5074398;28;20031;-71
2021/12/03 06:57:44;;;;;;;66.10;41.53;;;;;;;;;;5056157;28;20037;-71
2021/12/03 07:00:10;;;;;;;47.90;27.98;;;;;;;;;;5054720;28;20498;-71
2021/12/03 07:02:36;;;;;;;70.75;36.47;;;;;;;;;;5054287;28;20115;-71
2021/12/03 07:05:04;;;;;;;80.90;41.78;;;;;;;;;;5052469;28;20127;-73
2021/12/03 07:07:29;;;;;;;113.43;51.15;;;;;;;;;;5055172;28;20025;-72
2021/12/03 07:09:56;;;;;;;141.00;65.45;;;;;;;;;;5054139;28;20082;-72
2021/12/03 07:12:21;;;;;;;186.90;89.63;;;;;;;;;;5054129;28;20087;-72
2021/12/03 07:14:46;;;;;;;189.65;87.32;;;;;;;;;;5054542;28;20060;-72
2021/12/03 07:17:12;;;;;;;102.97;44.03;;;;;;;;;;5054832;28;20057;-72
2021/12/03 07:19:37;;;;;;;119.15;54.20;;;;;;;;;;5055704;28;20031;-72
2021/12/03 07:22:03;;;;;;;185.43;86.88;;;;;;;;;;5055369;28;20367;-72
2021/12/03 07:24:29;;;;;;;125.50;55.60;;;;;;;;;;5055040;28;20127;-71
2021/12/03 07:26:55;;;;;;;137.75;66.28;;;;;;;;;;5055268;28;20107;-73
2021/12/03 07:29:20;;;;;;;132.32;64.10;;;;;;;;;;5055446;28;20033;-71
2021/12/03 07:31:45;;;;;;;93.55;46.13;;;;;;;;;;5056865;28;20062;-73
2021/12/03 07:34:12;;;;;;;86.65;41.95;;;;;;;;;;5056315;28;20082;-72
2021/12/03 07:36:37;;;;;;;45.95;23.58;;;;;;;;;;5054164;28;20016;-72
2021/12/03 07:39:03;;;;;;;15.30;8.55;;;;;;;;;;5056206;28;20075;-72
2021/12/03 07:41:28;;;;;;;20.38;11.65;;;;;;;;;;5055243;28;20048;-72
2021/12/03 07:43:54;;;;;;;21.20;14.55;;;;;;;;;;5056341;28;20479;-71
2021/12/03 07:46:19;;;;;;;19.27;13.80;;;;;;;;;;5056913;28;20024;-72
2021/12/03 07:48:48;;;;;;;65.13;34.47;;;;;;;;;;5054960;28;20025;-71
2021/12/03 07:51:15;;;;;;;104.32;64.28;;;;;;;;;;5055567;28;20032;-72
2021/12/03 07:53:40;;;;;;;178.38;98.47;;;;;;;;;;5054948;28;20029;-72
2021/12/03 07:56:06;;;;;;;176.75;98.18;;;;;;;;;;5055587;28;20353;-72
2021/12/03 07:58:31;;;;;;;69.07;38.22;;;;;;;;;;5055354;28;20124;-71
2021/12/03 08:00:57;;;;;;;59.17;43.70;;;;;;;;;;5055204;28;20044;-72
2021/12/03 08:03:23;;;;;;;127.72;89.30;;;;;;;;;;5055845;28;20460;-74
2021/12/03 08:05:48;;;;;;;120.63;81.20;;;;;;;;;;5055068;28;20035;-72
2021/12/03 08:08:21;;;;;;;149.77;97.13;;;;;;;;;;5055246;28;20020;-72
2021/12/03 08:10:46;;;;;;;191.18;120.38;;;;;;;;;;5055213;28;20464;-73
2021/12/03 08:13:12;;;;;;;364.90;219.65;;;;;;;;;;5054956;28;20027;-72
2021/12/03 08:15:38;;;;;;;230.70;136.40;;;;;;;;;;5054872;28;20104;-72
2021/12/03 08:18:04;;;;;;;141.35;87.88;;;;;;;;;;5055961;28;20116;-72
2021/12/03 08:20:29;;;;;;;126.80;73.68;;;;;;;;;;5055707;28;20452;-72
2021/12/03 08:22:54;;;;;;;48.05;29.58;;;;;;;;;;5055705;28;20033;-73
2021/12/03 08:25:20;;;;;;;43.53;25.98;;;;;;;;;;5056115;28;20070;-73
2021/12/03 08:27:45;;;;;;;60.38;34.30;;;;;;;;;;5053648;28;20024;-72
2021/12/03 08:30:13;;;;;;;30.48;18.25;;;;;;;;;;5054976;28;20039;-74
2021/12/03 08:32:38;;;;;;;50.03;36.40;;;;;;;;;;5055343;28;20658;-72
2021/12/03 08:35:04;;;;;;;48.65;36.33;;;;;;;;;;5055447;28;20426;-71
2021/12/03 08:37:29;;;;;;;36.67;25.83;;;;;;;;;;5054373;28;20028;-72
2021/12/03 08:39:55;;;;;;;25.67;16.10;;;;;;;;;;5054553;28;20082;-71
2021/12/03 08:42:21;;;;;;;58.55;32.72;;;;;;;;;;5054889;28;20025;-72
2021/12/03 08:44:46;;;;;;;70.82;40.75;;;;;;;;;;5055574;28;20024;-70
2021/12/03 08:47:12;;;;;;;58.35;33.75;;;;;;;;;;5054868;28;20066;-71
2021/12/03 08:49:50;;;;;;;81.72;46.67;;;;;;;;;;5056882;28;20095;-72
2021/12/03 08:57:23;;;;;;;123.30;80.45;;;;;;;;;;5059101;28;20049;-72
2021/12/03 08:59:50;;;;;;;87.97;58.15;;;;;;;;;;5059717;28;20024;-74
2021/12/03 09:02:15;;;;;;;126.43;81.63;;;;;;;;;;5056726;28;20028;-72
2021/12/03 09:04:41;;;;;;;118.50;76.78;;;;;;;;;;5058138;28;20985;-73
2021/12/03 09:07:06;;;;;;;210.82;128.20;;;;;;;;;;5058358;28;20028;-72
2021/12/03 09:09:32;;;;;;;70.47;42.85;;;;;;;;;;5057956;28;20028;-72
2021/12/03 09:11:57;;;;;;;34.97;21.67;;;;;;;;;;5058241;28;20024;-73
2021/12/03 09:14:39;;;;;;;72.88;46.40;;;;;;;;;;5058606;28;20020;-72
2021/12/03 09:20:00;;;;;;;77.15;53.10;;;;;;;;;;5057937;28;20031;-73
2021/12/03 09:25:07;;;;;;;73.95;44.83;;;;;;;;;;5057617;28;20028;-73
2021/12/03 09:27:33;;;;;;;46.40;23.40;;;;;;;;;;5057906;28;20082;-72
2021/12/03 09:29:58;;;;;;;15.48;8.35;;;;;;;;;;5056612;28;20028;-73
2021/12/03 09:32:30;;;;;;;9.32;4.32;;;;;;;;;;5057372;28;20021;-73
2021/12/03 09:34:55;;;;;;;9.57;5.15;;;;;;;;;;5058091;28;20017;-72
2021/12/03 09:37:21;;;;;;;12.32;6.13;;;;;;;;;;5058073;28;20085;-72
2021/12/03 09:39:47;;;;;;;12.93;9.07;;;;;;;;;;5057338;28;20035;-72
2021/12/03 09:42:14;;;;;;;15.55;11.20;;;;;;;;;;5058149;28;20596;-71
2021/12/03 09:44:40;;;;;;;18.17;10.18;;;;;;;;;;5058590;28;20060;-73
2021/12/03 09:47:06;;;;;;;26.35;16.00;;;;;;;;;;5055733;28;20051;-71
2021/12/03 09:49:35;;;;;;;33.22;18.63;;;;;;;;;;5058284;28;20024;-73
2021/12/03 09:52:11;;;;;;;37.08;17.73;;;;;;;;;;5057477;28;20020;-71
2021/12/03 09:54:45;;;;;;;10.18;7.75;;;;;;;;;;5057168;28;20463;-73
2021/12/03 09:57:15;;;;;;;26.08;16.20;;;;;;;;;;5057870;28;20410;-73
2021/12/03 10:00:03;;;;;;;12.73;8.65;;;;;;;;;;5056620;28;20040;-72
2021/12/03 10:02:45;;;;;;;9.70;6.57;;;;;;;;;;5057055;28;20111;-72
2021/12/03 10:14:17;;;;;;;16.05;9.10;;;;;;;;;;5057109;28;20075;-72
2021/12/03 10:19:11;;;;;;;18.33;13.40;;;;;;;;;;5057066;28;20071;-72
2021/12/03 10:22:03;;;;;;;24.83;13.85;;;;;;;;;;5056894;28;20028;-74
2021/12/03 10:27:41;;;;;;;17.33;10.77;;;;;;;;;;5063420;28;20031;-72
2021/12/03 10:30:29;;;;;;;17.55;12.77;;;;;;;;;;5077820;28;20525;-73
2021/12/03 10:38:20;;;;;;;17.75;11.93;;;;;;;;;;5077040;28;20020;-72
2021/12/03 10:41:15;;;;;;;38.33;20.13;;;;;;;;;;5076566;28;20028;-72
2021/12/03 10:49:47;;;;;;;21.10;15.27;;;;;;;;;;5076478;28;20039;-72
2021/12/03 10:54:36;;;;;;;12.02;9.40;;;;;;;;;;5076770;28;20120;-72
2021/12/03 11:22:03;;;;;;;27.55;16.77;;;;;;;;;;5075618;28;20028;-73
2021/12/03 11:41:48;;;;;;;13.95;11.88;;;;;;;;;;5075665;28;20498;-72
2021/12/03 12:15:42;;;;;;;18.75;9.98;;;;;;;;;;5074675;28;20102;-74
2021/12/03 12:20:56;;;;;;;8.68;5.55;;;;;;;;;;5074776;28;20046;-74
2021/12/03 13:13:18;;;;;;;12.07;6.10;;;;;;;;;;5080985;28;20089;-74
2021/12/03 13:44:47;;;;;;;45.15;30.80;;;;;;;;;;5077530;28;20047;-74
2021/12/03 14:51:58;;;;;;;29.63;17.55;;;;;;;;;;5057555;28;20032;-72
2021/12/03 14:54:46;;;;;;;44.85;34.28;;;;;;;;;;5069381;28;20047;-75
2021/12/03 14:57:33;;;;;;;38.28;27.85;;;;;;;;;;5068055;28;20027;-73
2021/12/03 15:00:45;;;;;;;50.53;34.65;;;;;;;;;;5060224;28;20027;-74
2021/12/03 15:05:35;;;;;;;23.73;16.17;;;;;;;;;;5062398;28;20024;-74
2021/12/03 15:08:04;;;;;;;20.13;12.60;;;;;;;;;;5063285;28;20054;-74
2021/12/03 15:11:33;;;;;;;28.13;18.55;;;;;;;;;;5067481;28;20628;-73
2021/12/03 15:18:56;;;;;;;67.65;45.15;;;;;;;;;;5075971;28;20043;-74
2021/12/03 15:37:40;;;;;;;17.80;15.55;;;;;;;;;;5066524;28;20040;-73
2021/12/03 15:56:23;;;;;;;32.53;21.90;;;;;;;;;;5057380;28;20039;-73
2021/12/03 16:04:21;;;;;;;113.82;45.53;;;;;;;;;;5075238;28;20156;-72
2021/12/03 16:11:55;;;;;;;30.27;19.00;;;;;;;;;;5074823;28;20145;-73
2021/12/03 16:14:45;;;;;;;24.58;15.85;;;;;;;;;;5073810;28;20031;-74
2021/12/03 16:46:55;;;;;;;64.03;32.08;;;;;;;;;;5062512;28;20109;-73
2021/12/03 16:52:00;;;;;;;46.72;28.40;;;;;;;;;;5063713;28;20032;-74
2021/12/03 16:57:17;;;;;;;176.85;88.93;;;;;;;;;;5271018;22;20055;-72
2021/12/03 16:59:45;;;;;;;105.40;55.13;;;;;;;;;;5095825;28;20035;-74
2021/12/03 17:02:15;;;;;;;104.05;59.65;;;;;;;;;;5088345;28;20035;-73
2021/12/03 17:05:58;;;;;;;59.97;36.85;;;;;;;;;;5091214;28;20157;-73
2021/12/03 17:50:44;;;;;;;32.13;17.35;;;;;;;;;;5007265;28;20684;-73
2021/12/03 17:58:31;;;;;;;77.03;46.80;;;;;;;;;;5118514;27;20035;-73
2021/12/03 18:01:11;;;;;;;65.28;36.40;;;;;;;;;;5113309;27;20485;-73
2021/12/03 18:09:04;;;;;;;85.57;35.60;;;;;;;;;;5118379;27;20034;-73
2021/12/03 18:16:43;;;;;;;45.63;26.65;;;;;;;;;;5118057;27;20110;-72
2021/12/03 18:43:11;;;;;;;59.72;35.22;;;;;;;;;;5118370;27;20469;-71
2021/12/03 18:54:57;;;;;;;124.53;60.50;;;;;;;;;;5115255;27;20065;-74
2021/12/03 18:57:27;;;;;;;201.90;103.30;;;;;;;;;;5116559;27;20126;-73
2021/12/03 19:00:05;;;;;;;81.38;44.40;;;;;;;;;;5117708;27;20211;-72
2021/12/03 19:02:32;;;;;;;52.42;29.10;;;;;;;;;;5117744;27;20019;-73
2021/12/03 19:07:31;;;;;;;267.10;94.47;;;;;;;;;;5117667;27;20549;-71
2021/12/03 19:10:01;;;;;;;96.00;36.55;;;;;;;;;;5116509;27;20026;-72
2021/12/03 19:12:28;;;;;;;199.23;73.05;;;;;;;;;;5098570;27;20536;-72
2021/12/03 19:14:58;;;;;;;149.65;57.78;;;;;;;;;;5116467;27;20023;-72
2021/12/03 19:17:24;;;;;;;42.38;19.63;;;;;;;;;;5115188;27;20391;-72
2021/12/03 19:19:53;;;;;;;22.33;12.93;;;;;;;;;;5117195;27;20023;-72
2021/12/03 19:22:19;;;;;;;200.60;78.03;;;;;;;;;;5115859;27;20027;-72
2021/12/03 19:24:44;;;;;;;254.65;94.07;;;;;;;;;;5104663;27;20034;-72
2021/12/03 19:27:11;;;;;;;270.85;114.03;;;;;;;;;;5095784;28;20458;-72
2021/12/03 19:29:37;;;;;;;465.92;207.95;;;;;;;;;;5095925;28;20020;-72
2021/12/03 19:32:03;;;;;;;301.60;119.70;;;;;;;;;;5093762;28;20027;-73
2021/12/03 19:34:28;;;;;;;268.33;115.07;;;;;;;;;;5093841;28;20550;-71
2021/12/03 19:36:55;;;;;;;159.95;62.67;;;;;;;;;;5094037;28;21044;-72
2021/12/03 19:39:23;;;;;;;90.28;43.10;;;;;;;;;;5094603;28;20024;-71
2021/12/03 19:44:20;;;;;;;305.98;124.97;;;;;;;;;;5105835;27;20080;-72
2021/12/03 19:46:47;;;;;;;218.68;90.85;;;;;;;;;;5095942;28;20024;-72
2021/12/03 19:49:50;;;;;;;138.98;56.47;;;;;;;;;;5096252;28;20835;-72
2021/12/03 19:52:30;;;;;;;64.50;28.55;;;;;;;;;;5092734;28;20481;-72
2021/12/03 19:54:55;;;;;;;;;;;;;;;;;;5096147;28;20023;-72
2021/12/03 19:57:22;;;;;;;50.05;26.40;;;;;;;;;;5107432;27;19920;-72
2021/12/03 19:59:47;;;;;;;29.42;16.48;;;;;;;;;;5115765;27;20021;-73
2021/12/03 20:02:13;;;;;;;36.60;21.88;;;;;;;;;;5112493;27;20039;-73
2021/12/03 20:04:38;;;;;;;56.15;32.67;;;;;;;;;;5114409;27;21096;-73
2021/12/03 20:07:04;;;;;;;57.22;33.67;;;;;;;;;;5108217;27;20026;-80
2021/12/03 20:09:39;;;;;;;51.05;26.40;;;;;;;;;;5095501;27;20528;-79
2021/12/03 20:12:10;;;;;;;65.82;34.60;;;;;;;;;;5102799;27;20064;-80
2021/12/03 20:14:41;;;;;;;47.00;27.45;;;;;;;;;;5097124;28;20724;-79
2021/12/03 20:17:21;;;;;;;110.95;53.75;;;;;;;;;;5096677;28;20087;-80
2021/12/03 20:19:50;;;;;;;108.90;51.65;;;;;;;;;;5095342;27;20038;-79
2021/12/03 20:22:21;;;;;;;93.30;43.27;;;;;;;;;;5097513;28;20110;-79
2021/12/03 20:25:15;;;;;;;52.20;32.13;;;;;;;;;;5091538;27;20080;-78
2021/12/03 20:28:24;;;;;;;33.78;24.35;;;;;;;;;;5105822;28;20019;-78
2021/12/03 20:38:09;;;;;;;68.43;36.55;;;;;;;;;;5105172;28;20087;-81
2021/12/03 20:40:35;;;;;;;82.20;36.95;;;;;;;;;;5095674;28;20034;-78
2021/12/03 21:09:48;;;;;;;15.95;13.32;;;;;;;;;;5098639;28;20034;-79
2021/12/03 21:12:18;;;;;;;15.85;11.75;;;;;;;;;;5097218;28;20031;-78
2021/12/03 21:14:56;;;;;;;13.25;9.63;;;;;;;;;;5097415;28;20470;-78
2021/12/03 21:17:44;;;;;;;15.43;10.18;;;;;;;;;;5097438;28;20027;-79
2021/12/03 21:20:30;;;;;;;23.83;13.77;;;;;;;;;;5099149;28;20028;-79
2021/12/03 21:22:59;;;;;;;17.73;12.48;;;;;;;;;;5097088;28;20024;-78
2021/12/03 21:25:31;;;;;;;15.13;10.93;;;;;;;;;;5098384;28;20114;-78
2021/12/03 21:28:43;;;;;;;22.33;17.38;;;;;;;;;;5098608;28;20236;-78
2021/12/03 21:31:04;;;;;;;16.90;12.30;;;;;;;;;;5089265;28;20031;-80
2021/12/03 21:39:10;;;;;;;18.00;12.88;;;;;;;;;;5103835;27;20073;-80
2021/12/03 21:41:36;;;;;;;22.25;15.27;;;;;;;;;;5118187;27;20396;-78
2021/12/03 21:44:07;;;;;;;48.55;32.10;;;;;;;;;;5100302;27;20069;-80
2021/12/03 21:46:34;;;;;;;48.75;36.28;;;;;;;;;;5099719;27;20026;-80
2021/12/03 21:49:00;;;;;;;54.25;37.08;;;;;;;;;;5100339;27;20027;-78
2021/12/03 21:51:25;;;;;;;51.22;32.70;;;;;;;;;;5099637;27;20832;-77
2021/12/03 21:53:52;;;;;;;58.72;36.78;;;;;;;;;;5119219;27;20015;-79
2021/12/03 21:56:18;;;;;;;49.63;29.88;;;;;;;;;;5095623;27;20105;-78
2021/12/03 21:58:43;;;;;;;48.75;31.13;;;;;;;;;;5079533;28;20073;-78
2021/12/03 22:01:09;;;;;;;110.18;55.15;;;;;;;;;;5079635;28;20458;-78
2021/12/03 22:03:35;;;;;;;67.88;41.88;;;;;;;;;;5079381;28;20115;-78
2021/12/03 22:06:01;;;;;;;41.83;25.40;;;;;;;;;;5078877;28;20400;-78
2021/12/03 22:08:27;;;;;;;36.17;25.55;;;;;;;;;;5098827;28;20533;-78
2021/12/03 22:10:52;;;;;;;32.67;19.92;;;;;;;;;;5098511;28;20193;-78
2021/12/03 22:13:23;;;;;;;31.65;20.13;;;;;;;;;;5079040;28;20458;-78
2021/12/03 22:15:49;;;;;;;27.45;17.90;;;;;;;;;;5098030;28;20045;-78
2021/12/03 22:18:15;;;;;;;23.20;16.73;;;;;;;;;;5079070;28;20502;-78
2021/12/03 22:20:40;;;;;;;21.45;15.02;;;;;;;;;;5078037;28;20026;-78
2021/12/03 22:23:05;;;;;;;17.83;13.20;;;;;;;;;;5074037;28;20084;-77
2021/12/03 22:25:31;;;;;;;31.77;20.90;;;;;;;;;;5097047;28;20102;-77
2021/12/03 22:27:56;;;;;;;32.63;23.73;;;;;;;;;;5096596;28;20020;-77